createdAt,value
2023-01-15T00:00:01.667Z,4.75
2023-01-15T00:03:04.185Z,4.51
2023-01-15T00:06:06.793Z,4.72
2023-01-15T00:09:13.319Z,4.75
2023-01-15T00:12:15.942Z,4.75
2023-01-15T00:15:18.421Z,4.70
2023-01-15T00:18:21.056Z,4.59
2023-01-15T00:21:24.520Z,4.60
2023-01-15T00:24:45.631Z,4.64
2023-01-15T00:27:48.102Z,4.56
2023-01-15T00:30:51.895Z,4.61
2023-01-15T00:33:54.567Z,4.38
2023-01-15T00:36:57.577Z,4.32
2023-01-15T00:39:59.909Z,4.27
2023-01-15T00:43:02.583Z,4.37
2023-01-15T00:46:05.682Z,4.39
2023-01-15T00:49:08.618Z,4.57
2023-01-15T00:52:12.268Z,4.47
2023-01-15T00:55:14.932Z,4.66
2023-01-15T00:58:17.480Z,4.67
2023-01-15T01:01:20.409Z,4.67
2023-01-15T01:04:22.919Z,4.75
2023-01-15T01:07:25.543Z,4.74
2023-01-15T01:10:28.329Z,4.75
2023-01-15T01:13:31.075Z,4.58
2023-01-15T01:16:37.783Z,4.62
2023-01-15T01:19:40.729Z,4.39
2023-01-15T01:22:43.384Z,4.38
2023-01-15T01:25:46.181Z,4.44
2023-01-15T01:28:50.693Z,4.49
2023-01-15T01:31:53.362Z,4.50
2023-01-15T01:34:55.697Z,4.50
2023-01-15T01:37:59.039Z,4.33
2023-01-15T01:41:01.555Z,4.41
2023-01-15T01:44:28.445Z,4.41
2023-01-15T01:47:33.031Z,4.21
2023-01-15T01:50:39.505Z,4.20
2023-01-15T01:53:41.909Z,4.03
2023-01-15T01:56:44.737Z,3.80
2023-01-15T01:59:48.389Z,3.79
2023-01-15T02:02:52.784Z,3.95
2023-01-15T02:05:59.712Z,3.88
2023-01-15T02:09:03.574Z,3.82
2023-01-15T02:12:16.326Z,4.01
2023-01-15T02:15:40.501Z,3.90
2023-01-15T02:18:55.529Z,3.99
2023-01-15T02:22:14.591Z,4.16
2023-01-15T02:25:44.661Z,4.02
2023-01-15T02:28:51.692Z,4.25
2023-01-15T02:31:54.543Z,4.25
2023-01-15T02:35:02.641Z,4.04
2023-01-15T02:38:09.158Z,4.10
2023-01-15T02:41:18.014Z,4.13
2023-01-15T02:44:23.629Z,4.11
2023-01-15T02:47:33.413Z,3.98
2023-01-15T02:50:40.124Z,3.96
2023-01-15T02:53:46.961Z,3.78
2023-01-15T02:56:50.692Z,3.33
2023-01-15T02:59:56.997Z,3.24
2023-01-15T03:03:07.069Z,3.22
2023-01-15T03:06:33.549Z,3.39
2023-01-15T03:09:36.876Z,3.50
2023-01-15T03:13:03.365Z,3.62
2023-01-15T03:16:36.056Z,3.69
2023-01-15T03:19:58.868Z,3.57
2023-01-15T03:23:09.189Z,3.53
2023-01-15T03:26:13.695Z,3.54
2023-01-15T03:29:17.291Z,3.67
2023-01-15T03:32:21.177Z,3.53
2023-01-15T03:35:46.140Z,3.62
2023-01-15T03:38:51.237Z,3.52
2023-01-15T03:42:19.156Z,3.38
2023-01-15T03:45:32.125Z,3.53
2023-01-15T03:48:59.748Z,3.56
2023-01-15T03:52:17.931Z,3.52
2023-01-15T03:55:26.878Z,3.65
2023-01-15T03:58:44.500Z,3.67
2023-01-15T04:01:50.050Z,3.62
2023-01-15T04:04:57.986Z,3.63
2023-01-15T04:08:01.892Z,3.72
2023-01-15T04:11:08.108Z,3.53
2023-01-15T04:14:14.364Z,3.74
2023-01-15T04:17:17.372Z,3.68
2023-01-15T04:20:19.716Z,3.81
2023-01-15T04:23:23.150Z,3.83
2023-01-15T04:26:25.482Z,3.87
2023-01-15T04:29:28.099Z,3.71
2023-01-15T04:32:30.430Z,3.91
2023-01-15T04:35:33.179Z,3.93
2023-01-15T04:38:38.413Z,3.94
2023-01-15T04:41:59.906Z,3.98
2023-01-15T04:45:02.269Z,3.98
2023-01-15T04:48:05.062Z,3.87
2023-01-15T04:51:07.677Z,4.01
2023-01-15T04:54:12.008Z,3.75
2023-01-15T04:57:14.197Z,3.92
2023-01-15T05:00:17.441Z,4.05
2023-01-15T05:03:19.813Z,4.06
2023-01-15T05:06:22.463Z,3.97
2023-01-15T05:09:24.786Z,4.04
2023-01-15T05:12:27.449Z,4.05
2023-01-15T05:15:30.014Z,3.96
2023-01-15T05:18:32.637Z,4.01
2023-01-15T05:21:37.778Z,3.95
2023-01-15T05:24:40.377Z,3.97
2023-01-15T05:27:42.797Z,3.95
2023-01-15T05:30:45.553Z,3.89
2023-01-15T05:33:50.081Z,4.04
2023-01-15T05:36:52.741Z,3.98
2023-01-15T05:39:55.079Z,4.13
2023-01-15T05:42:57.788Z,4.00
2023-01-15T05:46:02.382Z,4.14
2023-01-15T05:49:07.508Z,3.86
2023-01-15T05:52:09.901Z,4.03
2023-01-15T05:55:12.496Z,3.91
2023-01-15T05:58:14.828Z,4.08
2023-01-15T06:01:17.864Z,3.93
2023-01-15T06:04:25.127Z,4.07
2023-01-15T06:07:27.483Z,4.08
2023-01-15T06:10:30.051Z,4.15
2023-01-15T06:13:32.451Z,4.20
2023-01-15T06:16:35.164Z,4.10
2023-01-15T06:19:37.510Z,4.27
2023-01-15T06:22:40.177Z,4.17
2023-01-15T06:25:42.538Z,4.28
2023-01-15T06:28:46.524Z,4.24
2023-01-15T06:31:49.590Z,4.30
2023-01-15T06:34:52.477Z,4.13
2023-01-15T06:37:54.856Z,4.34
2023-01-15T06:40:59.905Z,4.31
2023-01-15T06:44:20.951Z,4.39
2023-01-15T06:47:24.791Z,4.27
2023-01-15T06:50:27.399Z,4.27
2023-01-15T06:53:30.048Z,4.34
2023-01-15T06:56:32.361Z,4.38
2023-01-15T06:59:35.042Z,4.02
2023-01-15T07:02:38.061Z,4.35
2023-01-15T07:05:41.471Z,4.55
2023-01-15T07:08:43.771Z,4.42
2023-01-15T07:11:52.429Z,4.63
2023-01-15T07:14:54.852Z,4.63
2023-01-15T07:17:58.163Z,4.67
2023-01-15T07:21:00.841Z,4.70
2023-01-15T07:24:03.723Z,4.70
2023-01-15T07:27:06.074Z,4.77
2023-01-15T07:30:09.153Z,4.75
2023-01-15T07:33:12.834Z,4.76
2023-01-15T07:36:15.361Z,4.61
2023-01-15T07:39:17.619Z,4.82
2023-01-15T07:42:38.616Z,4.60
2023-01-15T07:46:01.102Z,4.81
2023-01-15T07:49:24.289Z,4.66
2023-01-15T07:52:26.627Z,4.84
2023-01-15T07:55:29.367Z,4.67
2023-01-15T07:58:31.768Z,4.93
2023-01-15T08:01:34.518Z,4.88
2023-01-15T08:04:37.294Z,4.87
2023-01-15T08:07:41.261Z,4.90
2023-01-15T08:11:02.649Z,4.99
2023-01-15T08:14:23.890Z,5.12
2023-01-15T08:17:26.711Z,4.88
2023-01-15T08:20:29.164Z,5.12
2023-01-15T08:23:31.801Z,5.09
2023-01-15T08:26:34.189Z,5.03
2023-01-15T08:29:36.809Z,5.20
2023-01-15T08:32:39.432Z,5.22
2023-01-15T08:35:42.224Z,5.09
2023-01-15T08:38:44.562Z,5.27
2023-01-15T08:41:47.174Z,5.34
2023-01-15T08:44:49.825Z,5.34
2023-01-15T08:47:56.311Z,5.23
2023-01-15T08:50:58.933Z,5.37
2023-01-15T08:54:01.693Z,5.39
2023-01-15T08:57:04.244Z,5.30
2023-01-15T09:00:08.474Z,5.34
2023-01-15T09:03:10.974Z,5.56
2023-01-15T09:06:13.849Z,5.34
2023-01-15T09:09:16.407Z,5.40
2023-01-15T09:12:19.214Z,5.58
2023-01-15T09:15:22.252Z,5.63
2023-01-15T09:18:26.089Z,5.63
2023-01-15T09:21:28.408Z,5.72
2023-01-15T09:24:31.190Z,5.82
2023-01-15T09:27:34.471Z,5.74
2023-01-15T09:30:37.143Z,5.97
2023-01-15T09:33:39.518Z,5.67
2023-01-15T09:36:42.278Z,5.78
2023-01-15T09:39:44.825Z,5.82
2023-01-15T09:42:58.201Z,5.76
2023-01-15T09:46:33.182Z,5.77
2023-01-15T09:50:18.971Z,5.79
2023-01-15T09:54:11.743Z,6.06
2023-01-15T09:57:18.416Z,5.84
2023-01-15T10:00:24.526Z,6.27
2023-01-15T10:03:42.984Z,6.22
2023-01-15T10:06:51.562Z,6.32
2023-01-15T10:10:13.501Z,5.90
2023-01-15T10:13:41.476Z,6.40
2023-01-15T10:16:48.883Z,6.56
2023-01-15T10:19:54.921Z,6.61
2023-01-15T10:23:30.689Z,6.54
2023-01-15T10:26:40.675Z,6.74
2023-01-15T10:29:49.486Z,6.56
2023-01-15T10:33:02.338Z,6.56
2023-01-15T10:36:15.967Z,6.95
2023-01-15T10:39:35.925Z,7.40
2023-01-15T10:42:58.678Z,7.98
2023-01-15T10:46:20.455Z,8.09
2023-01-15T10:49:23.137Z,8.82
2023-01-15T10:52:43.053Z,9.43
2023-01-15T10:55:55.550Z,9.86
2023-01-15T10:59:13.045Z,9.69
2023-01-15T11:02:39.375Z,9.62
2023-01-15T11:05:42.966Z,9.35
2023-01-15T11:12:19.224Z,8.62
2023-01-15T11:15:42.985Z,8.54
2023-01-15T11:19:05.519Z,8.28
2023-01-15T11:22:28.717Z,8.17
2023-01-15T11:25:32.969Z,7.93
2023-01-15T11:28:40.943Z,8.00
2023-01-15T11:31:43.309Z,7.94
2023-01-15T11:34:54.165Z,8.04
2023-01-15T11:38:12.869Z,7.50
2023-01-15T11:41:49.481Z,8.02
2023-01-15T11:45:15.758Z,8.00
2023-01-15T11:48:38.635Z,8.06
2023-01-15T11:51:43.352Z,8.23
2023-01-15T11:54:49.708Z,8.16
2023-01-15T11:58:21.550Z,8.36
2023-01-15T12:01:57.246Z,8.59
2023-01-15T12:05:31.273Z,8.76
2023-01-15T12:08:56.062Z,8.66
2023-01-15T12:12:23.430Z,8.58
2023-01-15T12:15:46.500Z,8.67
2023-01-15T12:18:57.801Z,8.56
2023-01-15T12:22:15.410Z,8.94
2023-01-15T12:25:29.549Z,9.12
2023-01-15T12:28:38.483Z,9.10
2023-01-15T12:31:59.603Z,9.01
2023-01-15T12:35:50.435Z,8.82
2023-01-15T12:39:48.346Z,8.73
2023-01-15T12:43:16.281Z,8.35
2023-01-15T12:46:33.165Z,8.60
2023-01-15T12:49:50.027Z,8.48
2023-01-15T12:53:01.697Z,8.80
2023-01-15T12:56:12.357Z,8.83
2023-01-15T12:59:20.588Z,8.64
2023-01-15T13:02:52.253Z,8.70
2023-01-15T13:06:01.791Z,8.90
2023-01-15T13:09:21.604Z,8.85
2023-01-15T13:12:27.317Z,9.02
2023-01-15T13:15:38.810Z,8.97
2023-01-15T13:19:00.412Z,8.32
2023-01-15T13:22:12.068Z,8.85
2023-01-15T13:25:31.521Z,8.78
2023-01-15T13:29:09.947Z,8.63
2023-01-15T13:32:24.865Z,8.31
2023-01-15T13:35:35.969Z,8.64
2023-01-15T13:38:43.073Z,8.66
2023-01-15T13:42:11.175Z,8.62
2023-01-15T13:45:14.729Z,8.46
2023-01-15T13:48:33.309Z,8.62
2023-01-15T13:51:45.644Z,8.58
2023-01-15T13:54:51.798Z,8.21
2023-01-15T13:57:54.587Z,8.05
2023-01-15T14:01:22.403Z,7.84
2023-01-15T14:04:41.297Z,8.25
2023-01-15T14:07:44.982Z,8.42
2023-01-15T14:10:48.878Z,8.46
2023-01-15T14:14:07.465Z,8.46
2023-01-15T14:17:50.399Z,8.07
2023-01-15T14:21:23.039Z,7.81
2023-01-15T14:24:46.420Z,8.37
2023-01-15T14:28:02.240Z,8.21
2023-01-15T14:31:13.421Z,8.19
2023-01-15T14:34:28.568Z,8.14
2023-01-15T14:37:59.259Z,8.18
2023-01-15T14:41:14.694Z,8.03
2023-01-15T14:44:28.946Z,8.24
2023-01-15T14:47:50.100Z,8.20
2023-01-15T14:50:54.146Z,8.08
2023-01-15T14:54:06.598Z,8.16
2023-01-15T14:57:10.193Z,8.18
2023-01-15T15:00:23.797Z,8.04
2023-01-15T15:04:05.517Z,8.19
2023-01-15T15:07:13.580Z,8.16
2023-01-15T15:10:16.772Z,8.21
2023-01-15T15:13:41.062Z,8.18
2023-01-15T15:16:48.396Z,8.17
2023-01-15T15:20:00.517Z,8.17
2023-01-15T15:23:29.167Z,8.03
2023-01-15T15:26:35.644Z,7.86
2023-01-15T15:29:38.511Z,7.70
2023-01-15T15:32:42.495Z,8.13
2023-01-15T15:35:52.464Z,7.67
2023-01-15T15:39:00.395Z,8.12
2023-01-15T15:42:31.264Z,8.11
2023-01-15T15:45:55.075Z,7.98
2023-01-15T15:48:58.529Z,7.57
2023-01-15T15:52:00.909Z,8.10
2023-01-15T15:55:07.403Z,7.96
2023-01-15T15:58:22.053Z,8.10
2023-01-15T16:01:25.029Z,7.95
2023-01-15T16:04:28.167Z,7.93
2023-01-15T16:07:35.074Z,8.07
2023-01-15T16:10:42.079Z,7.92
2023-01-15T16:13:56.109Z,8.07
2023-01-15T16:17:13.241Z,8.08
2023-01-15T16:20:19.433Z,7.98
2023-01-15T16:23:28.476Z,7.65
2023-01-15T16:26:33.920Z,8.07
2023-01-15T16:29:37.084Z,8.06
2023-01-15T16:32:40.779Z,7.97
2023-01-15T16:35:43.416Z,8.06
2023-01-15T16:38:50.191Z,8.06
2023-01-15T16:41:57.884Z,8.06
2023-01-15T16:45:04.624Z,7.89
2023-01-15T16:48:31.184Z,8.02
2023-01-15T16:51:35.775Z,7.98
2023-01-15T16:54:38.405Z,7.97
2023-01-15T16:57:42.361Z,7.97
2023-01-15T17:00:56.478Z,7.81
2023-01-15T17:03:59.159Z,7.95
2023-01-15T17:07:05.258Z,7.96
2023-01-15T17:10:20.784Z,7.95
2023-01-15T17:13:40.173Z,7.75
2023-01-15T17:16:42.491Z,7.87
2023-01-15T17:19:45.339Z,7.76
2023-01-15T17:22:49.550Z,7.68
2023-01-15T17:25:53.035Z,7.80
2023-01-15T17:28:55.513Z,7.65
2023-01-15T17:31:58.216Z,7.62
2023-01-15T17:35:02.840Z,7.73
2023-01-15T17:38:10.012Z,7.71
2023-01-15T17:41:14.081Z,7.68
2023-01-15T17:44:16.761Z,7.68
2023-01-15T17:47:19.091Z,7.53
2023-01-15T17:50:22.314Z,7.49
2023-01-15T17:53:24.849Z,7.60
2023-01-15T17:56:46.051Z,7.51
2023-01-15T18:00:07.199Z,7.54
2023-01-15T18:03:37.480Z,7.45
2023-01-15T18:06:45.338Z,7.54
2023-01-15T18:09:48.156Z,7.54
2023-01-15T18:12:51.683Z,7.46
2023-01-15T18:15:54.114Z,7.52
2023-01-15T18:18:56.896Z,7.44
2023-01-15T18:21:59.387Z,7.42
2023-01-15T18:25:02.237Z,7.25
2023-01-15T18:28:04.944Z,7.36
2023-01-15T18:31:08.186Z,7.38
2023-01-15T18:34:11.135Z,7.42
2023-01-15T18:37:14.035Z,7.48
2023-01-15T18:40:16.651Z,7.52
2023-01-15T18:43:38.182Z,7.23
2023-01-15T18:46:43.650Z,7.49
2023-01-15T18:49:46.870Z,7.48
2023-01-15T18:52:52.445Z,7.44
2023-01-15T18:56:07.192Z,7.44
2023-01-15T18:59:11.917Z,7.46
2023-01-15T19:02:20.278Z,7.05
2023-01-15T19:05:24.360Z,6.61
2023-01-15T19:08:27.319Z,7.36
2023-01-15T19:11:30.422Z,7.13
2023-01-15T19:14:55.239Z,6.85
2023-01-15T19:18:16.336Z,7.25
2023-01-15T19:21:22.091Z,7.17
2023-01-15T19:24:24.844Z,7.06
2023-01-15T19:27:28.590Z,7.11
2023-01-15T19:30:34.763Z,6.87
2023-01-15T19:33:37.836Z,6.97
2023-01-15T19:36:40.220Z,7.05
2023-01-15T19:39:43.074Z,6.91
2023-01-15T19:43:04.418Z,6.96
2023-01-15T19:46:27.065Z,7.06
2023-01-15T19:49:54.392Z,7.15
2023-01-15T19:52:57.383Z,7.01
2023-01-15T19:55:59.949Z,6.71
2023-01-15T19:59:03.519Z,7.06
2023-01-15T20:02:05.894Z,7.07
2023-01-15T20:05:09.339Z,7.19
2023-01-15T20:08:13.848Z,7.08
2023-01-15T20:11:16.433Z,6.98
2023-01-15T20:14:18.854Z,7.02
2023-01-15T20:17:24.962Z,6.96
2023-01-15T20:20:29.733Z,6.90
2023-01-15T20:23:32.772Z,6.85
2023-01-15T20:26:35.090Z,7.04
2023-01-15T20:29:39.500Z,6.84
2023-01-15T20:32:44.196Z,6.95
2023-01-15T20:35:46.878Z,6.73
2023-01-15T20:38:49.384Z,6.86
2023-01-15T20:42:10.562Z,6.78
2023-01-15T20:45:13.686Z,6.73
2023-01-15T20:48:34.973Z,6.62
2023-01-15T20:51:37.417Z,6.72
2023-01-15T20:54:40.214Z,6.71
2023-01-15T20:57:43.486Z,6.67
2023-01-15T21:00:46.235Z,6.69
2023-01-15T21:03:48.593Z,6.74
2023-01-15T21:06:51.282Z,6.56
2023-01-15T21:09:53.683Z,6.57
2023-01-15T21:12:59.651Z,6.70
2023-01-15T21:16:06.184Z,6.83
2023-01-15T21:19:08.665Z,6.94
2023-01-15T21:22:10.866Z,7.01
2023-01-15T21:25:13.582Z,6.89
2023-01-15T21:28:15.897Z,7.03
2023-01-15T21:31:18.812Z,7.09
2023-01-15T21:34:21.299Z,7.00
2023-01-15T21:37:23.969Z,7.14
2023-01-15T21:40:26.384Z,7.00
2023-01-15T21:43:47.458Z,7.16
2023-01-15T21:46:52.035Z,7.19
2023-01-15T21:49:56.071Z,7.20
2023-01-15T21:53:03.106Z,6.66
2023-01-15T21:56:07.386Z,7.23
2023-01-15T21:59:24.763Z,7.07
2023-01-15T22:02:31.118Z,7.22
2023-01-15T22:05:41.880Z,7.05
2023-01-15T22:08:47.127Z,7.09
2023-01-15T22:12:22.130Z,7.12
2023-01-15T22:15:58.409Z,7.19
2023-01-15T22:19:21.403Z,7.20
2023-01-15T22:22:41.392Z,7.21
2023-01-15T22:26:00.783Z,7.20
2023-01-15T22:29:17.018Z,7.13
2023-01-15T22:32:20.030Z,6.96
2023-01-15T22:35:22.764Z,7.09
2023-01-15T22:38:25.587Z,6.99
2023-01-15T22:41:50.077Z,6.96
2023-01-15T22:44:54.193Z,6.69
2023-01-15T22:47:56.582Z,6.21
2023-01-15T22:51:05.988Z,6.81
2023-01-15T22:54:09.621Z,6.36
2023-01-15T22:57:13.209Z,6.72
2023-01-15T23:00:16.390Z,6.76
2023-01-15T23:03:19.133Z,6.88
2023-01-15T23:06:30.650Z,6.90
2023-01-15T23:09:41.066Z,6.44
2023-01-15T23:12:46.566Z,6.87
2023-01-15T23:16:19.876Z,6.83
2023-01-15T23:19:30.743Z,6.91
2023-01-15T23:22:33.709Z,6.94
2023-01-15T23:25:36.198Z,6.81
2023-01-15T23:28:40.784Z,6.93
2023-01-15T23:31:43.371Z,6.24
2023-01-15T23:34:46.306Z,6.33
2023-01-15T23:37:49.128Z,6.77
2023-01-15T23:40:53.227Z,6.95
2023-01-15T23:44:19.950Z,6.95
2023-01-15T23:47:27.011Z,6.95
2023-01-15T23:50:29.586Z,6.95
2023-01-15T23:53:32.599Z,6.43
2023-01-15T23:56:38.127Z,6.36
2023-01-15T23:59:41.017Z,6.80
